Smyrna, SC (29743)

10:29 PM EDT on April 30, 2017 (GMT -0400)
Cashion Crossroads | | Change Station

Elev 751 ft 35.09 °N, 81.51 °W | Updated 32 seconds ago

Mostly Cloudy
Mostly Cloudy
69.3 °F
Feels Like 69.3 °F
N
0.0
Wind Variable Wind from WNW

Today
High -- | Low -- °F
--% Chance of Precip.
Yesterday
High -- | Low -- °F
Precip. -- in
Pressure 30.05 in
Visibility 6.0 miles
Clouds Scattered Clouds 4400 ft
Mostly Cloudy 6500 ft
Dew Point 66 °F
Humidity 91%
Rainfall 0.15 in
Snow Depth Not available.
6:35 AM 8:10 PM
Waxing Crescent, 28% visible
METAR KAKH 010154Z AUTO 17005KT 6SM HZ SCT044 BKN065 23/19 A3007 RMK AO2 LTG DSNT W SLP175 T02280194
Pressure 30.05 in
Visibility 6.0 miles
Clouds Scattered Clouds 4400 ft
Mostly Cloudy 6500 ft
Dew Point 66 °F
Humidity 91%
Rainfall 0.15 in
Snow Depth Not available.
6:35 AM 8:10 PM
Waxing Crescent, 28% visible
METAR KAKH 010154Z AUTO 17005KT 6SM HZ SCT044 BKN065 23/19 A3007 RMK AO2 LTG DSNT W SLP175 T02280194

Get Severe Weather Alerts

Thanks for signing up!

Be on the lookout for a verification email in your inbox.

You'll start receiving the daily forecast at 8 AM.

×

10-Day Weather Forecast

Almanac

Astronomy

Apr. 30, 2017 Rise Set
Actual Time
Civil Twilight
Nautical Twilight
Astronomical Twilight
Moon
Length of Visible Light
Length of Day
Tomorrow will be .
, % of the Moon is Illuminated

Today's Extremes

State Highs State Lows

Community

WunderPhotos

WunderBlog® & News

Nearby

Air Quality

  Air Quality AQ Index Pollutant
Not available.

Snow Depth

Station Depth Elevation

Earthquake Activity

City Distance Mag. Time & Date
Minimum magnitude displayed is 2.5.

Coastal Water Temperatures

Place Temperature

Stations

Nearby Weather Stations

Station Location Temp. Windchill Dew Point Humidity Wind Precip. Elev Updated Type
                   

Watches & Warnings

There are currently no watches in effect.